sensor_id;sensor_type;location;lat;lon;timestamp;temperature;humidity
61253;DHT22;47127;47.516;8.596;2023-12-29T00:01:32;8.00;99.90
61253;DHT22;47127;47.516;8.596;2023-12-29T00:03:58;8.00;99.90
61253;DHT22;47127;47.516;8.596;2023-12-29T00:06:23;8.00;99.90
61253;DHT22;47127;47.516;8.596;2023-12-29T00:08:50;8.00;99.90
61253;DHT22;47127;47.516;8.596;2023-12-29T00:11:17;8.00;99.90
61253;DHT22;47127;47.516;8.596;2023-12-29T00:13:43;8.00;99.90
61253;DHT22;47127;47.516;8.596;2023-12-29T00:16:08;8.00;99.90
61253;DHT22;47127;47.516;8.596;2023-12-29T00:18:37;8.10;99.90
61253;DHT22;47127;47.516;8.596;2023-12-29T00:21:04;8.10;99.90
61253;DHT22;47127;47.516;8.596;2023-12-29T00:23:30;8.10;99.90
61253;DHT22;47127;47.516;8.596;2023-12-29T00:25:56;8.10;99.90
61253;DHT22;47127;47.516;8.596;2023-12-29T00:28:21;8.00;99.90
61253;DHT22;47127;47.516;8.596;2023-12-29T00:30:47;8.00;99.90
61253;DHT22;47127;47.516;8.596;2023-12-29T00:33:12;7.90;99.90
61253;DHT22;47127;47.516;8.596;2023-12-29T00:35:38;7.90;99.90
61253;DHT22;47127;47.516;8.596;2023-12-29T00:38:06;7.80;99.90
61253;DHT22;47127;47.516;8.596;2023-12-29T00:40:33;7.80;99.90
61253;DHT22;47127;47.516;8.596;2023-12-29T00:43:00;7.80;99.90
61253;DHT22;47127;47.516;8.596;2023-12-29T00:45:26;7.80;99.90
61253;DHT22;47127;47.516;8.596;2023-12-29T00:47:54;7.90;99.90
61253;DHT22;47127;47.516;8.596;2023-12-29T00:50:20;7.90;99.90
61253;DHT22;47127;47.516;8.596;2023-12-29T00:52:46;7.90;99.90
61253;DHT22;47127;47.516;8.596;2023-12-29T00:55:11;8.00;99.90
61253;DHT22;47127;47.516;8.596;2023-12-29T00:57:37;8.10;99.90
61253;DHT22;47127;47.516;8.596;2023-12-29T01:00:03;8.00;99.90
61253;DHT22;47127;47.516;8.596;2023-12-29T01:02:28;8.10;99.90
61253;DHT22;47127;47.516;8.596;2023-12-29T01:04:54;8.10;99.90
61253;DHT22;47127;47.516;8.596;2023-12-29T01:07:19;8.10;99.90
61253;DHT22;47127;47.516;8.596;2023-12-29T01:09:45;8.20;99.90
61253;DHT22;47127;47.516;8.596;2023-12-29T01:12:10;8.20;99.90
61253;DHT22;47127;47.516;8.596;2023-12-29T01:14:36;8.20;99.90
61253;DHT22;47127;47.516;8.596;2023-12-29T01:17:02;8.20;99.90
61253;DHT22;47127;47.516;8.596;2023-12-29T01:19:27;8.20;99.90
61253;DHT22;47127;47.516;8.596;2023-12-29T01:21:53;8.20;99.90
61253;DHT22;47127;47.516;8.596;2023-12-29T01:24:18;8.20;99.90
61253;DHT22;47127;47.516;8.596;2023-12-29T01:26:44;8.30;99.90
61253;DHT22;47127;47.516;8.596;2023-12-29T01:29:09;8.30;99.90
61253;DHT22;47127;47.516;8.596;2023-12-29T01:31:35;8.20;99.90
61253;DHT22;47127;47.516;8.596;2023-12-29T01:34:00;8.00;99.90
61253;DHT22;47127;47.516;8.596;2023-12-29T01:36:27;7.90;99.90
61253;DHT22;47127;47.516;8.596;2023-12-29T01:38:53;7.90;99.90
61253;DHT22;47127;47.516;8.596;2023-12-29T01:41:22;7.90;99.90
61253;DHT22;47127;47.516;8.596;2023-12-29T01:46:25;8.00;99.90
61253;DHT22;47127;47.516;8.596;2023-12-29T01:48:53;8.10;99.90
61253;DHT22;47127;47.516;8.596;2023-12-29T01:51:21;8.20;99.90
61253;DHT22;47127;47.516;8.596;2023-12-29T01:53:48;8.20;99.90
61253;DHT22;47127;47.516;8.596;2023-12-29T01:56:14;8.20;99.90
61253;DHT22;47127;47.516;8.596;2023-12-29T01:58:40;8.20;99.90
61253;DHT22;47127;47.516;8.596;2023-12-29T02:01:07;8.30;99.90
61253;DHT22;47127;47.516;8.596;2023-12-29T02:03:33;8.40;99.90
61253;DHT22;47127;47.516;8.596;2023-12-29T02:05:59;8.40;99.90
61253;DHT22;47127;47.516;8.596;2023-12-29T02:08:25;8.40;99.90
61253;DHT22;47127;47.516;8.596;2023-12-29T02:10:51;8.40;99.90
61253;DHT22;47127;47.516;8.596;2023-12-29T02:13:16;8.40;99.90
61253;DHT22;47127;47.516;8.596;2023-12-29T02:15:42;8.50;99.90
61253;DHT22;47127;47.516;8.596;2023-12-29T02:18:14;8.60;99.90
61253;DHT22;47127;47.516;8.596;2023-12-29T02:20:41;8.50;99.90
61253;DHT22;47127;47.516;8.596;2023-12-29T02:23:07;8.50;99.90
61253;DHT22;47127;47.516;8.596;2023-12-29T02:25:33;8.40;99.90
61253;DHT22;47127;47.516;8.596;2023-12-29T02:28:04;8.40;99.90
61253;DHT22;47127;47.516;8.596;2023-12-29T02:33:05;8.40;99.90
61253;DHT22;47127;47.516;8.596;2023-12-29T02:35:35;8.30;99.90
61253;DHT22;47127;47.516;8.596;2023-12-29T02:38:03;8.40;99.90
61253;DHT22;47127;47.516;8.596;2023-12-29T02:40:29;8.40;99.90
61253;DHT22;47127;47.516;8.596;2023-12-29T02:42:54;8.40;99.90
61253;DHT22;47127;47.516;8.596;2023-12-29T02:45:21;8.40;99.90
61253;DHT22;47127;47.516;8.596;2023-12-29T02:47:47;8.40;99.90
61253;DHT22;47127;47.516;8.596;2023-12-29T02:50:13;8.40;99.90
61253;DHT22;47127;47.516;8.596;2023-12-29T02:52:39;8.40;99.90
61253;DHT22;47127;47.516;8.596;2023-12-29T02:55:06;8.50;99.90
61253;DHT22;47127;47.516;8.596;2023-12-29T02:57:31;8.50;99.90
61253;DHT22;47127;47.516;8.596;2023-12-29T02:59:57;8.60;99.90
61253;DHT22;47127;47.516;8.596;2023-12-29T03:02:23;8.60;99.90
61253;DHT22;47127;47.516;8.596;2023-12-29T03:04:49;8.60;99.90
61253;DHT22;47127;47.516;8.596;2023-12-29T03:07:14;8.60;99.90
61253;DHT22;47127;47.516;8.596;2023-12-29T03:09:40;8.50;99.90
61253;DHT22;47127;47.516;8.596;2023-12-29T03:12:06;8.50;99.90
61253;DHT22;47127;47.516;8.596;2023-12-29T03:14:32;8.40;99.90
61253;DHT22;47127;47.516;8.596;2023-12-29T03:16:58;8.40;99.90
61253;DHT22;47127;47.516;8.596;2023-12-29T03:19:24;8.40;99.90
61253;DHT22;47127;47.516;8.596;2023-12-29T03:21:49;8.40;99.90
61253;DHT22;47127;47.516;8.596;2023-12-29T03:24:15;8.40;99.90
61253;DHT22;47127;47.516;8.596;2023-12-29T03:26:41;8.40;99.90
61253;DHT22;47127;47.516;8.596;2023-12-29T03:29:06;8.30;99.90
61253;DHT22;47127;47.516;8.596;2023-12-29T03:31:32;8.30;99.90
61253;DHT22;47127;47.516;8.596;2023-12-29T03:33:57;8.30;99.90
61253;DHT22;47127;47.516;8.596;2023-12-29T03:36:23;8.20;99.90
61253;DHT22;47127;47.516;8.596;2023-12-29T03:38:49;8.20;99.90
61253;DHT22;47127;47.516;8.596;2023-12-29T03:41:14;8.10;99.90
61253;DHT22;47127;47.516;8.596;2023-12-29T03:43:40;8.10;99.90
61253;DHT22;47127;47.516;8.596;2023-12-29T03:46:19;8.10;99.90
61253;DHT22;47127;47.516;8.596;2023-12-29T03:48:44;7.90;99.90
61253;DHT22;47127;47.516;8.596;2023-12-29T03:51:10;7.90;99.90
61253;DHT22;47127;47.516;8.596;2023-12-29T03:53:35;7.90;99.90
61253;DHT22;47127;47.516;8.596;2023-12-29T03:56:15;8.00;99.90
61253;DHT22;47127;47.516;8.596;2023-12-29T03:58:45;8.00;99.90
61253;DHT22;47127;47.516;8.596;2023-12-29T04:01:11;8.10;99.90
61253;DHT22;47127;47.516;8.596;2023-12-29T04:03:37;8.20;99.90
61253;DHT22;47127;47.516;8.596;2023-12-29T04:06:03;8.20;99.90
61253;DHT22;47127;47.516;8.596;2023-12-29T04:08:30;8.20;99.90
61253;DHT22;47127;47.516;8.596;2023-12-29T04:10:56;8.20;99.90
61253;DHT22;47127;47.516;8.596;2023-12-29T04:13:21;8.10;99.90
61253;DHT22;47127;47.516;8.596;2023-12-29T04:15:47;8.00;99.90
61253;DHT22;47127;47.516;8.596;2023-12-29T04:18:13;7.80;99.90
61253;DHT22;47127;47.516;8.596;2023-12-29T04:20:38;7.80;99.90
61253;DHT22;47127;47.516;8.596;2023-12-29T04:23:06;7.70;99.90
61253;DHT22;47127;47.516;8.596;2023-12-29T04:25:32;7.70;99.90
61253;DHT22;47127;47.516;8.596;2023-12-29T04:27:58;7.80;99.90
61253;DHT22;47127;47.516;8.596;2023-12-29T04:30:24;7.80;99.90
61253;DHT22;47127;47.516;8.596;2023-12-29T04:32:49;7.70;99.90
61253;DHT22;47127;47.516;8.596;2023-12-29T04:35:15;7.70;99.90
61253;DHT22;47127;47.516;8.596;2023-12-29T04:37:44;7.80;99.90
61253;DHT22;47127;47.516;8.596;2023-12-29T04:40:13;7.80;99.90
61253;DHT22;47127;47.516;8.596;2023-12-29T04:42:39;7.80;99.90
61253;DHT22;47127;47.516;8.596;2023-12-29T04:45:05;7.70;99.90
61253;DHT22;47127;47.516;8.596;2023-12-29T04:47:31;7.80;99.90
61253;DHT22;47127;47.516;8.596;2023-12-29T04:49:56;7.70;99.90
61253;DHT22;47127;47.516;8.596;2023-12-29T04:52:22;7.80;99.90
61253;DHT22;47127;47.516;8.596;2023-12-29T04:54:48;7.80;99.90
61253;DHT22;47127;47.516;8.596;2023-12-29T04:57:14;7.70;99.90
61253;DHT22;47127;47.516;8.596;2023-12-29T04:59:39;7.80;99.90
61253;DHT22;47127;47.516;8.596;2023-12-29T05:02:05;7.70;99.90
61253;DHT22;47127;47.516;8.596;2023-12-29T05:04:31;7.70;99.90
61253;DHT22;47127;47.516;8.596;2023-12-29T05:06:56;7.70;99.90
61253;DHT22;47127;47.516;8.596;2023-12-29T05:09:22;7.70;99.90
61253;DHT22;47127;47.516;8.596;2023-12-29T05:11:48;7.70;99.90
61253;DHT22;47127;47.516;8.596;2023-12-29T05:14:13;7.80;99.90
61253;DHT22;47127;47.516;8.596;2023-12-29T05:16:40;7.90;99.90
61253;DHT22;47127;47.516;8.596;2023-12-29T05:19:05;7.90;99.90
61253;DHT22;47127;47.516;8.596;2023-12-29T05:21:31;7.90;99.90
61253;DHT22;47127;47.516;8.596;2023-12-29T05:23:57;8.00;99.90
61253;DHT22;47127;47.516;8.596;2023-12-29T05:26:22;8.00;99.90
61253;DHT22;47127;47.516;8.596;2023-12-29T05:28:48;8.00;99.90
61253;DHT22;47127;47.516;8.596;2023-12-29T05:31:13;8.10;99.90
61253;DHT22;47127;47.516;8.596;2023-12-29T05:33:39;8.20;99.90
61253;DHT22;47127;47.516;8.596;2023-12-29T05:36:09;8.10;99.90
61253;DHT22;47127;47.516;8.596;2023-12-29T05:38:36;8.10;99.90
61253;DHT22;47127;47.516;8.596;2023-12-29T05:41:02;8.10;99.90
61253;DHT22;47127;47.516;8.596;2023-12-29T05:43:32;8.10;99.90
61253;DHT22;47127;47.516;8.596;2023-12-29T05:45:58;8.10;99.90
61253;DHT22;47127;47.516;8.596;2023-12-29T05:48:24;8.10;99.90
61253;DHT22;47127;47.516;8.596;2023-12-29T05:50:53;8.10;99.90
61253;DHT22;47127;47.516;8.596;2023-12-29T05:53:19;8.20;99.90
61253;DHT22;47127;47.516;8.596;2023-12-29T05:55:44;8.30;99.90
61253;DHT22;47127;47.516;8.596;2023-12-29T05:58:11;8.30;99.90
61253;DHT22;47127;47.516;8.596;2023-12-29T06:00:37;8.30;99.90
61253;DHT22;47127;47.516;8.596;2023-12-29T06:03:05;8.20;99.90
61253;DHT22;47127;47.516;8.596;2023-12-29T06:05:30;8.20;99.90
61253;DHT22;47127;47.516;8.596;2023-12-29T06:07:56;8.20;99.90
61253;DHT22;47127;47.516;8.596;2023-12-29T06:10:22;8.30;99.90
61253;DHT22;47127;47.516;8.596;2023-12-29T06:12:47;8.40;99.90
61253;DHT22;47127;47.516;8.596;2023-12-29T06:15:13;8.40;99.90
61253;DHT22;47127;47.516;8.596;2023-12-29T06:17:42;8.40;99.90
61253;DHT22;47127;47.516;8.596;2023-12-29T06:20:09;8.20;99.90
61253;DHT22;47127;47.516;8.596;2023-12-29T06:22:39;8.10;99.90
61253;DHT22;47127;47.516;8.596;2023-12-29T06:25:09;8.00;99.90
61253;DHT22;47127;47.516;8.596;2023-12-29T06:27:41;7.90;99.90
61253;DHT22;47127;47.516;8.596;2023-12-29T06:30:07;7.90;99.90
61253;DHT22;47127;47.516;8.596;2023-12-29T06:32:33;7.80;99.90
61253;DHT22;47127;47.516;8.596;2023-12-29T06:34:59;7.90;99.90
61253;DHT22;47127;47.516;8.596;2023-12-29T06:37:25;7.90;99.90
61253;DHT22;47127;47.516;8.596;2023-12-29T06:39:50;7.90;99.90
61253;DHT22;47127;47.516;8.596;2023-12-29T06:42:16;7.80;99.90
61253;DHT22;47127;47.516;8.596;2023-12-29T06:44:42;7.90;99.90
61253;DHT22;47127;47.516;8.596;2023-12-29T06:47:07;7.90;99.90
61253;DHT22;47127;47.516;8.596;2023-12-29T06:49:36;8.00;99.90
61253;DHT22;47127;47.516;8.596;2023-12-29T06:52:02;8.00;99.90
61253;DHT22;47127;47.516;8.596;2023-12-29T06:54:28;8.00;99.90
61253;DHT22;47127;47.516;8.596;2023-12-29T06:56:53;8.00;99.90
61253;DHT22;47127;47.516;8.596;2023-12-29T06:59:19;8.00;99.90
61253;DHT22;47127;47.516;8.596;2023-12-29T07:01:46;8.10;99.90
61253;DHT22;47127;47.516;8.596;2023-12-29T07:04:12;8.10;99.90
61253;DHT22;47127;47.516;8.596;2023-12-29T07:06:38;8.10;99.90
61253;DHT22;47127;47.516;8.596;2023-12-29T07:09:04;8.00;99.90
61253;DHT22;47127;47.516;8.596;2023-12-29T07:11:30;8.10;99.90
61253;DHT22;47127;47.516;8.596;2023-12-29T07:13:55;8.10;99.90
61253;DHT22;47127;47.516;8.596;2023-12-29T07:16:21;8.10;99.90
61253;DHT22;47127;47.516;8.596;2023-12-29T07:18:47;8.10;99.90
61253;DHT22;47127;47.516;8.596;2023-12-29T07:21:13;8.10;99.90
61253;DHT22;47127;47.516;8.596;2023-12-29T07:23:40;8.10;99.90
61253;DHT22;47127;47.516;8.596;2023-12-29T07:26:07;8.10;99.90
61253;DHT22;47127;47.516;8.596;2023-12-29T07:28:32;8.10;99.90
61253;DHT22;47127;47.516;8.596;2023-12-29T07:30:58;8.10;99.90
61253;DHT22;47127;47.516;8.596;2023-12-29T07:33:24;8.00;99.90
61253;DHT22;47127;47.516;8.596;2023-12-29T07:35:50;8.00;99.90
61253;DHT22;47127;47.516;8.596;2023-12-29T07:38:16;8.10;99.90
61253;DHT22;47127;47.516;8.596;2023-12-29T07:40:41;8.10;99.90
61253;DHT22;47127;47.516;8.596;2023-12-29T07:43:07;8.10;99.90
61253;DHT22;47127;47.516;8.596;2023-12-29T07:45:33;8.10;99.90
61253;DHT22;47127;47.516;8.596;2023-12-29T07:47:58;8.10;99.90
61253;DHT22;47127;47.516;8.596;2023-12-29T07:50:24;8.10;99.90
61253;DHT22;47127;47.516;8.596;2023-12-29T07:52:50;8.10;99.90
61253;DHT22;47127;47.516;8.596;2023-12-29T07:55:15;8.20;99.90
61253;DHT22;47127;47.516;8.596;2023-12-29T07:57:44;8.20;99.90
61253;DHT22;47127;47.516;8.596;2023-12-29T08:00:12;8.20;99.90
61253;DHT22;47127;47.516;8.596;2023-12-29T08:02:38;8.20;99.90
61253;DHT22;47127;47.516;8.596;2023-12-29T08:05:04;8.30;99.90
61253;DHT22;47127;47.516;8.596;2023-12-29T08:07:29;8.30;99.90
61253;DHT22;47127;47.516;8.596;2023-12-29T08:09:55;8.30;99.90
61253;DHT22;47127;47.516;8.596;2023-12-29T08:12:20;8.40;99.90
61253;DHT22;47127;47.516;8.596;2023-12-29T08:14:46;8.40;99.90
61253;DHT22;47127;47.516;8.596;2023-12-29T08:17:13;8.50;99.90
61253;DHT22;47127;47.516;8.596;2023-12-29T08:19:38;8.50;99.90
61253;DHT22;47127;47.516;8.596;2023-12-29T08:22:05;8.50;99.90
61253;DHT22;47127;47.516;8.596;2023-12-29T08:24:30;8.50;99.90
61253;DHT22;47127;47.516;8.596;2023-12-29T08:26:56;8.50;99.90
61253;DHT22;47127;47.516;8.596;2023-12-29T08:29:22;8.50;99.90
61253;DHT22;47127;47.516;8.596;2023-12-29T08:31:47;8.60;99.90
61253;DHT22;47127;47.516;8.596;2023-12-29T08:34:13;8.70;99.90
61253;DHT22;47127;47.516;8.596;2023-12-29T08:36:40;8.70;99.90
61253;DHT22;47127;47.516;8.596;2023-12-29T08:39:05;8.80;99.90
61253;DHT22;47127;47.516;8.596;2023-12-29T08:41:31;8.80;99.90
61253;DHT22;47127;47.516;8.596;2023-12-29T08:43:56;8.90;99.90
61253;DHT22;47127;47.516;8.596;2023-12-29T08:46:22;8.90;99.90
61253;DHT22;47127;47.516;8.596;2023-12-29T08:48:48;8.90;99.90
61253;DHT22;47127;47.516;8.596;2023-12-29T08:51:13;9.00;99.90
61253;DHT22;47127;47.516;8.596;2023-12-29T08:53:39;9.00;99.90
61253;DHT22;47127;47.516;8.596;2023-12-29T08:56:05;9.00;99.90
61253;DHT22;47127;47.516;8.596;2023-12-29T08:58:32;9.00;99.90
61253;DHT22;47127;47.516;8.596;2023-12-29T09:00:58;9.10;99.90
61253;DHT22;47127;47.516;8.596;2023-12-29T09:03:23;9.10;99.90
61253;DHT22;47127;47.516;8.596;2023-12-29T09:05:49;9.20;99.90
61253;DHT22;47127;47.516;8.596;2023-12-29T09:08:14;9.20;99.90
61253;DHT22;47127;47.516;8.596;2023-12-29T09:10:40;9.30;99.90
61253;DHT22;47127;47.516;8.596;2023-12-29T09:13:06;9.30;99.90
61253;DHT22;47127;47.516;8.596;2023-12-29T09:15:31;9.20;99.90
61253;DHT22;47127;47.516;8.596;2023-12-29T09:17:57;9.30;99.90
61253;DHT22;47127;47.516;8.596;2023-12-29T09:20:23;9.30;99.90
61253;DHT22;47127;47.516;8.596;2023-12-29T09:22:48;9.30;99.90
61253;DHT22;47127;47.516;8.596;2023-12-29T09:25:14;9.20;99.90
61253;DHT22;47127;47.516;8.596;2023-12-29T09:27:40;9.30;99.90
61253;DHT22;47127;47.516;8.596;2023-12-29T09:30:06;9.30;99.90
61253;DHT22;47127;47.516;8.596;2023-12-29T09:32:32;9.30;99.90
61253;DHT22;47127;47.516;8.596;2023-12-29T09:34:57;9.30;99.90
61253;DHT22;47127;47.516;8.596;2023-12-29T09:37:23;9.40;99.90
61253;DHT22;47127;47.516;8.596;2023-12-29T09:39:49;9.40;99.90
61253;DHT22;47127;47.516;8.596;2023-12-29T09:42:20;9.40;99.90
61253;DHT22;47127;47.516;8.596;2023-12-29T09:44:52;9.50;99.90
61253;DHT22;47127;47.516;8.596;2023-12-29T09:47:23;9.50;99.90
61253;DHT22;47127;47.516;8.596;2023-12-29T09:49:49;9.50;99.90
61253;DHT22;47127;47.516;8.596;2023-12-29T09:52:16;9.60;99.90
61253;DHT22;47127;47.516;8.596;2023-12-29T09:54:42;9.50;99.90
61253;DHT22;47127;47.516;8.596;2023-12-29T09:57:09;9.60;99.90
61253;DHT22;47127;47.516;8.596;2023-12-29T09:59:35;9.60;99.90
61253;DHT22;47127;47.516;8.596;2023-12-29T10:02:05;9.60;99.90
61253;DHT22;47127;47.516;8.596;2023-12-29T10:04:31;9.70;99.90
61253;DHT22;47127;47.516;8.596;2023-12-29T10:07:01;9.70;99.90
61253;DHT22;47127;47.516;8.596;2023-12-29T10:09:30;9.70;99.90
61253;DHT22;47127;47.516;8.596;2023-12-29T10:11:58;9.70;99.90
61253;DHT22;47127;47.516;8.596;2023-12-29T10:14:30;9.70;99.90
61253;DHT22;47127;47.516;8.596;2023-12-29T10:17:07;9.80;99.90
61253;DHT22;47127;47.516;8.596;2023-12-29T10:19:37;9.70;99.90
61253;DHT22;47127;47.516;8.596;2023-12-29T10:22:11;9.80;99.90
61253;DHT22;47127;47.516;8.596;2023-12-29T10:24:39;9.80;99.90
61253;DHT22;47127;47.516;8.596;2023-12-29T10:27:07;9.80;99.90
61253;DHT22;47127;47.516;8.596;2023-12-29T10:29:33;9.80;99.90
61253;DHT22;47127;47.516;8.596;2023-12-29T10:31:59;9.80;99.90
61253;DHT22;47127;47.516;8.596;2023-12-29T10:34:25;9.80;99.90
61253;DHT22;47127;47.516;8.596;2023-12-29T10:36:55;9.80;99.90
61253;DHT22;47127;47.516;8.596;2023-12-29T10:39:21;9.80;99.90
61253;DHT22;47127;47.516;8.596;2023-12-29T10:41:46;9.80;99.90
61253;DHT22;47127;47.516;8.596;2023-12-29T10:44:12;9.90;99.90
61253;DHT22;47127;47.516;8.596;2023-12-29T10:46:38;9.90;99.90
61253;DHT22;47127;47.516;8.596;2023-12-29T10:49:08;9.90;99.90
61253;DHT22;47127;47.516;8.596;2023-12-29T10:51:35;10.00;99.90
61253;DHT22;47127;47.516;8.596;2023-12-29T10:54:00;9.90;99.90
61253;DHT22;47127;47.516;8.596;2023-12-29T10:56:26;10.00;99.90
61253;DHT22;47127;47.516;8.596;2023-12-29T10:59:01;10.00;99.90
61253;DHT22;47127;47.516;8.596;2023-12-29T11:01:29;10.00;99.90
61253;DHT22;47127;47.516;8.596;2023-12-29T11:06:26;10.00;99.90
61253;DHT22;47127;47.516;8.596;2023-12-29T11:08:53;10.00;99.90
61253;DHT22;47127;47.516;8.596;2023-12-29T11:11:18;10.10;99.90
61253;DHT22;47127;47.516;8.596;2023-12-29T11:13:46;10.20;99.90
61253;DHT22;47127;47.516;8.596;2023-12-29T11:16:14;10.30;99.90
61253;DHT22;47127;47.516;8.596;2023-12-29T11:18:43;10.30;99.90
61253;DHT22;47127;47.516;8.596;2023-12-29T11:21:10;10.20;99.90
61253;DHT22;47127;47.516;8.596;2023-12-29T11:23:36;10.20;99.90
61253;DHT22;47127;47.516;8.596;2023-12-29T11:26:03;10.30;99.90
61253;DHT22;47127;47.516;8.596;2023-12-29T11:28:28;10.30;99.90
61253;DHT22;47127;47.516;8.596;2023-12-29T11:30:54;10.40;99.90
61253;DHT22;47127;47.516;8.596;2023-12-29T11:33:31;10.30;99.90
61253;DHT22;47127;47.516;8.596;2023-12-29T11:41:10;10.40;99.90
61253;DHT22;47127;47.516;8.596;2023-12-29T11:43:38;10.40;99.90
61253;DHT22;47127;47.516;8.596;2023-12-29T11:46:04;10.50;99.90
61253;DHT22;47127;47.516;8.596;2023-12-29T11:48:56;10.50;99.90
61253;DHT22;47127;47.516;8.596;2023-12-29T11:51:50;10.60;99.90
61253;DHT22;47127;47.516;8.596;2023-12-29T11:54:25;10.60;99.90
61253;DHT22;47127;47.516;8.596;2023-12-29T11:56:52;10.60;99.90
61253;DHT22;47127;47.516;8.596;2023-12-29T11:59:22;10.50;99.90
61253;DHT22;47127;47.516;8.596;2023-12-29T12:01:51;10.70;99.90
61253;DHT22;47127;47.516;8.596;2023-12-29T12:04:40;10.70;99.90
61253;DHT22;47127;47.516;8.596;2023-12-29T12:09:50;10.60;99.90
61253;DHT22;47127;47.516;8.596;2023-12-29T12:12:38;10.60;99.90
61253;DHT22;47127;47.516;8.596;2023-12-29T12:15:05;10.60;99.90
61253;DHT22;47127;47.516;8.596;2023-12-29T12:17:50;10.70;99.90
61253;DHT22;47127;47.516;8.596;2023-12-29T12:20:17;10.70;99.90
61253;DHT22;47127;47.516;8.596;2023-12-29T12:22:44;10.70;99.90
61253;DHT22;47127;47.516;8.596;2023-12-29T12:25:12;10.70;99.90
61253;DHT22;47127;47.516;8.596;2023-12-29T12:27:38;10.80;99.90
61253;DHT22;47127;47.516;8.596;2023-12-29T12:30:05;10.80;99.90
61253;DHT22;47127;47.516;8.596;2023-12-29T12:32:30;10.90;99.90
61253;DHT22;47127;47.516;8.596;2023-12-29T12:34:56;10.90;99.90
61253;DHT22;47127;47.516;8.596;2023-12-29T12:37:23;11.00;99.90
61253;DHT22;47127;47.516;8.596;2023-12-29T12:39:50;11.10;99.90
61253;DHT22;47127;47.516;8.596;2023-12-29T12:42:16;11.00;99.90
61253;DHT22;47127;47.516;8.596;2023-12-29T12:47:27;11.10;99.90
61253;DHT22;47127;47.516;8.596;2023-12-29T12:49:55;11.20;99.90
61253;DHT22;47127;47.516;8.596;2023-12-29T12:52:21;11.10;99.90
61253;DHT22;47127;47.516;8.596;2023-12-29T12:54:47;11.10;99.90
61253;DHT22;47127;47.516;8.596;2023-12-29T12:57:18;11.20;99.90
61253;DHT22;47127;47.516;8.596;2023-12-29T12:59:43;11.30;99.90
61253;DHT22;47127;47.516;8.596;2023-12-29T13:02:09;11.40;99.90
61253;DHT22;47127;47.516;8.596;2023-12-29T13:04:35;11.40;99.90
61253;DHT22;47127;47.516;8.596;2023-12-29T13:07:00;11.50;99.90
61253;DHT22;47127;47.516;8.596;2023-12-29T13:09:26;11.60;99.90
61253;DHT22;47127;47.516;8.596;2023-12-29T13:12:09;11.70;99.90
61253;DHT22;47127;47.516;8.596;2023-12-29T13:14:35;11.80;99.90
61253;DHT22;47127;47.516;8.596;2023-12-29T13:17:23;11.80;99.90
61253;DHT22;47127;47.516;8.596;2023-12-29T13:19:57;11.70;99.90
61253;DHT22;47127;47.516;8.596;2023-12-29T13:22:24;11.70;99.90
61253;DHT22;47127;47.516;8.596;2023-12-29T13:24:50;11.70;99.90
61253;DHT22;47127;47.516;8.596;2023-12-29T13:27:15;11.70;99.90
61253;DHT22;47127;47.516;8.596;2023-12-29T13:29:41;11.90;99.90
61253;DHT22;47127;47.516;8.596;2023-12-29T13:32:22;12.00;99.90
61253;DHT22;47127;47.516;8.596;2023-12-29T13:35:01;12.10;99.90
61253;DHT22;47127;47.516;8.596;2023-12-29T13:37:36;12.10;99.90
61253;DHT22;47127;47.516;8.596;2023-12-29T13:42:47;12.00;99.90
61253;DHT22;47127;47.516;8.596;2023-12-29T13:45:15;11.90;99.90
61253;DHT22;47127;47.516;8.596;2023-12-29T13:47:41;11.90;99.90
61253;DHT22;47127;47.516;8.596;2023-12-29T13:50:09;11.80;99.90
61253;DHT22;47127;47.516;8.596;2023-12-29T13:52:39;11.80;99.90
61253;DHT22;47127;47.516;8.596;2023-12-29T13:55:05;11.80;99.90
61253;DHT22;47127;47.516;8.596;2023-12-29T13:57:35;11.90;99.90
61253;DHT22;47127;47.516;8.596;2023-12-29T14:00:22;11.90;99.90
61253;DHT22;47127;47.516;8.596;2023-12-29T14:05:32;11.80;99.90
61253;DHT22;47127;47.516;8.596;2023-12-29T14:08:16;11.80;99.90
61253;DHT22;47127;47.516;8.596;2023-12-29T14:10:44;11.60;99.90
61253;DHT22;47127;47.516;8.596;2023-12-29T14:13:13;11.60;99.90
61253;DHT22;47127;47.516;8.596;2023-12-29T14:15:40;11.60;99.90
61253;DHT22;47127;47.516;8.596;2023-12-29T14:20:54;11.50;99.90
61253;DHT22;47127;47.516;8.596;2023-12-29T14:23:20;11.50;99.90
61253;DHT22;47127;47.516;8.596;2023-12-29T14:25:45;11.50;99.90
61253;DHT22;47127;47.516;8.596;2023-12-29T14:28:17;11.50;99.90
61253;DHT22;47127;47.516;8.596;2023-12-29T14:30:43;11.50;99.90
61253;DHT22;47127;47.516;8.596;2023-12-29T14:33:09;11.40;99.90
61253;DHT22;47127;47.516;8.596;2023-12-29T14:35:34;11.50;99.90
61253;DHT22;47127;47.516;8.596;2023-12-29T14:38:00;11.50;99.90
61253;DHT22;47127;47.516;8.596;2023-12-29T14:40:26;11.40;99.90
61253;DHT22;47127;47.516;8.596;2023-12-29T14:42:52;11.30;99.90
61253;DHT22;47127;47.516;8.596;2023-12-29T14:45:17;11.30;99.90
61253;DHT22;47127;47.516;8.596;2023-12-29T14:47:43;11.20;99.90
61253;DHT22;47127;47.516;8.596;2023-12-29T14:50:11;11.20;99.90
61253;DHT22;47127;47.516;8.596;2023-12-29T14:52:40;11.20;99.90
61253;DHT22;47127;47.516;8.596;2023-12-29T14:55:06;11.10;99.90
61253;DHT22;47127;47.516;8.596;2023-12-29T14:57:32;11.20;99.90
61253;DHT22;47127;47.516;8.596;2023-12-29T14:59:57;11.20;99.90
61253;DHT22;47127;47.516;8.596;2023-12-29T15:02:23;11.20;99.90
61253;DHT22;47127;47.516;8.596;2023-12-29T15:04:49;11.20;99.90
61253;DHT22;47127;47.516;8.596;2023-12-29T15:07:15;11.20;99.90
61253;DHT22;47127;47.516;8.596;2023-12-29T15:09:41;11.20;99.90
61253;DHT22;47127;47.516;8.596;2023-12-29T15:12:07;11.30;99.90
61253;DHT22;47127;47.516;8.596;2023-12-29T15:14:32;11.30;99.90
61253;DHT22;47127;47.516;8.596;2023-12-29T15:16:58;11.30;99.90
61253;DHT22;47127;47.516;8.596;2023-12-29T15:19:23;11.20;99.90
61253;DHT22;47127;47.516;8.596;2023-12-29T15:21:49;11.20;99.90
61253;DHT22;47127;47.516;8.596;2023-12-29T15:24:19;11.20;99.90
61253;DHT22;47127;47.516;8.596;2023-12-29T15:26:45;11.20;99.90
61253;DHT22;47127;47.516;8.596;2023-12-29T15:29:10;11.20;99.90
61253;DHT22;47127;47.516;8.596;2023-12-29T15:31:36;11.20;99.90
61253;DHT22;47127;47.516;8.596;2023-12-29T15:34:01;11.20;99.90
61253;DHT22;47127;47.516;8.596;2023-12-29T15:36:27;11.20;99.90
61253;DHT22;47127;47.516;8.596;2023-12-29T15:38:53;11.20;99.90
61253;DHT22;47127;47.516;8.596;2023-12-29T15:41:18;11.20;99.90
61253;DHT22;47127;47.516;8.596;2023-12-29T15:43:44;11.20;99.90
61253;DHT22;47127;47.516;8.596;2023-12-29T15:46:16;11.20;99.90
61253;DHT22;47127;47.516;8.596;2023-12-29T15:48:42;11.10;99.90
61253;DHT22;47127;47.516;8.596;2023-12-29T15:51:08;11.10;99.90
61253;DHT22;47127;47.516;8.596;2023-12-29T15:53:37;11.10;99.90
61253;DHT22;47127;47.516;8.596;2023-12-29T15:56:05;11.00;99.90
61253;DHT22;47127;47.516;8.596;2023-12-29T15:58:31;11.00;99.90
61253;DHT22;47127;47.516;8.596;2023-12-29T16:00:57;11.10;99.90
61253;DHT22;47127;47.516;8.596;2023-12-29T16:03:22;11.10;99.90
61253;DHT22;47127;47.516;8.596;2023-12-29T16:05:48;11.10;99.90
61253;DHT22;47127;47.516;8.596;2023-12-29T16:08:14;11.00;99.90